createdAt,value
2018-11-10T06:34:48.668Z,996.76
2018-11-10T06:36:48.383Z,996.71
2018-11-10T06:37:48.369Z,996.85
2018-11-10T06:38:48.360Z,996.90
2018-11-10T06:39:48.466Z,996.84
2018-11-10T06:40:48.572Z,996.94
2018-11-10T06:41:48.322Z,996.85
2018-11-10T06:42:48.321Z,996.93
2018-11-10T06:43:48.313Z,996.89
2018-11-10T06:44:52.392Z,996.94
2018-11-10T06:45:48.421Z,996.94
2018-11-10T06:46:48.601Z,996.99
2018-11-10T06:47:48.265Z,997.04
2018-11-10T06:48:48.258Z,997.07
2018-11-10T06:49:48.242Z,997.01
2018-11-10T06:50:48.227Z,997.05
2018-11-10T06:51:48.274Z,997.14
2018-11-10T06:52:48.711Z,997.24
2018-11-10T06:53:48.456Z,997.24
2018-11-10T06:54:48.182Z,997.23
2018-11-10T06:55:48.434Z,997.29
2018-11-10T06:56:48.407Z,997.22
2018-11-10T06:57:48.598Z,997.26
2018-11-10T06:58:48.143Z,997.16
2018-11-10T06:59:48.510Z,997.23
2018-11-10T07:00:48.124Z,997.30
2018-11-10T07:01:48.228Z,997.27
2018-11-10T07:02:48.101Z,997.22
2018-11-10T07:03:48.386Z,997.29
2018-11-10T07:04:48.322Z,997.31
2018-11-10T07:05:48.121Z,997.23
2018-11-10T07:06:48.306Z,997.22
2018-11-10T07:07:48.046Z,997.26
2018-11-10T07:08:48.033Z,997.21
2018-11-10T07:09:48.154Z,997.30
2018-11-10T07:10:48.014Z,997.31
2018-11-10T07:11:48.380Z,997.27
2018-11-10T07:12:48.145Z,997.25
2018-11-10T07:13:48.345Z,997.27
2018-11-10T07:14:47.980Z,997.23
2018-11-10T07:15:47.958Z,997.15
2018-11-10T07:16:47.953Z,997.20
2018-11-10T07:17:48.212Z,997.23
2018-11-10T07:18:48.177Z,997.23
2018-11-10T07:19:47.940Z,997.16
2018-11-10T07:20:47.905Z,997.21
2018-11-10T07:21:47.895Z,997.14
2018-11-10T07:22:47.985Z,997.24
2018-11-10T07:23:48.124Z,997.24
2018-11-10T07:24:47.910Z,997.24
2018-11-10T07:25:48.341Z,997.15
2018-11-10T07:26:47.834Z,997.23
2018-11-10T07:27:47.939Z,997.20
2018-11-10T07:28:47.812Z,997.28
2018-11-10T07:29:48.061Z,997.18
2018-11-10T07:30:47.791Z,997.25
2018-11-10T07:31:50.845Z,997.25
2018-11-10T07:32:47.771Z,997.26
2018-11-10T07:33:47.779Z,997.20
2018-11-10T07:34:48.008Z,997.29
2018-11-10T07:35:48.097Z,997.32
2018-11-10T07:36:47.730Z,997.26
2018-11-10T07:37:47.963Z,997.29
2018-11-10T07:38:48.103Z,997.27
2018-11-10T07:39:47.710Z,997.36
2018-11-10T07:40:47.688Z,997.28
2018-11-10T07:41:47.678Z,997.33
2018-11-10T07:42:47.677Z,997.33
2018-11-10T07:43:47.660Z,997.28
2018-11-10T07:44:47.887Z,997.34
2018-11-10T07:45:47.784Z,997.35
2018-11-10T07:46:47.628Z,997.35
2018-11-10T07:47:47.842Z,997.30
2018-11-10T07:48:47.706Z,997.32
2018-11-10T07:49:48.086Z,997.31
2018-11-10T07:50:48.025Z,997.39
2018-11-10T07:51:47.590Z,997.32
2018-11-10T07:52:47.583Z,997.41
2018-11-10T07:53:47.872Z,997.41
2018-11-10T07:54:47.658Z,997.38
2018-11-10T07:55:47.539Z,997.32
2018-11-10T07:56:47.530Z,997.32
2018-11-10T07:57:47.527Z,997.34
2018-11-10T07:58:47.499Z,997.29
2018-11-10T07:59:47.743Z,997.31
2018-11-10T08:00:47.489Z,997.30
2018-11-10T08:01:47.472Z,997.33
2018-11-10T08:02:47.464Z,997.31
2018-11-10T08:03:47.699Z,997.32
2018-11-10T08:04:47.443Z,997.22
2018-11-10T08:05:47.442Z,997.28
2018-11-10T08:06:47.442Z,997.26
2018-11-10T08:07:47.409Z,997.28
2018-11-10T08:08:47.398Z,997.21
2018-11-10T08:09:47.401Z,997.25
2018-11-10T08:10:47.419Z,997.26
2018-11-10T08:11:47.411Z,997.30
2018-11-10T08:12:47.360Z,997.32
2018-11-10T08:13:48.714Z,997.32
2018-11-10T08:14:47.352Z,997.29
2018-11-10T08:15:47.341Z,997.33
2018-11-10T08:16:47.535Z,997.37
2018-11-10T08:17:47.317Z,997.41
2018-11-10T08:18:47.292Z,997.41
2018-11-10T08:19:47.535Z,997.43
2018-11-10T08:20:47.290Z,997.42
2018-11-10T08:21:47.756Z,997.32
2018-11-10T08:22:47.513Z,997.41
2018-11-10T08:23:47.487Z,997.31
2018-11-10T08:24:47.252Z,997.30
2018-11-10T08:25:47.225Z,997.27
2018-11-10T08:26:47.210Z,997.30
2018-11-10T08:27:47.220Z,997.30
2018-11-10T08:28:47.197Z,997.34
2018-11-10T08:29:47.190Z,997.34
2018-11-10T08:30:47.673Z,997.32
2018-11-10T08:31:47.406Z,997.36
2018-11-10T08:32:47.147Z,997.34
2018-11-10T08:33:47.203Z,997.33
2018-11-10T08:34:47.135Z,997.34
2018-11-10T08:35:47.364Z,997.33
2018-11-10T08:36:47.102Z,997.31
2018-11-10T08:37:47.351Z,997.40
2018-11-10T08:38:47.093Z,997.38
2018-11-10T08:39:47.129Z,997.35
2018-11-10T08:40:47.165Z,997.33
2018-11-10T08:41:47.062Z,997.36
2018-11-10T08:42:47.163Z,997.41
2018-11-10T08:43:47.525Z,997.39
2018-11-10T08:44:47.277Z,997.39
2018-11-10T08:45:47.142Z,997.41
2018-11-10T08:46:48.517Z,997.42
2018-11-10T08:47:46.991Z,997.40
2018-11-10T08:48:46.978Z,997.48
2018-11-10T08:49:46.969Z,997.34
2018-11-10T08:50:47.207Z,997.40
2018-11-10T08:51:47.191Z,997.38
2018-11-10T08:52:46.935Z,997.41
2018-11-10T08:53:46.917Z,997.43
2018-11-10T08:54:46.923Z,997.42
2018-11-10T08:55:47.029Z,997.37
2018-11-10T08:56:46.903Z,997.41
2018-11-10T08:57:46.885Z,997.42
2018-11-10T08:58:47.228Z,997.38
2018-11-10T08:59:47.104Z,997.38
2018-11-10T09:00:46.847Z,997.39
2018-11-10T09:01:46.844Z,997.32
2018-11-10T09:02:46.827Z,997.37
2018-11-10T09:03:47.072Z,997.41
2018-11-10T09:04:47.172Z,997.44
2018-11-10T09:05:46.796Z,997.44
2018-11-10T09:06:46.789Z,997.43
2018-11-10T09:07:47.022Z,997.44
2018-11-10T09:08:46.862Z,997.41
2018-11-10T09:09:46.933Z,997.45
2018-11-10T09:10:46.992Z,997.33
2018-11-10T09:11:47.086Z,997.41
2018-11-10T09:12:46.747Z,997.38
2018-11-10T09:13:48.110Z,997.39
2018-11-10T09:14:46.695Z,997.34
2018-11-10T09:15:46.875Z,997.40
2018-11-10T09:16:46.939Z,997.36
2018-11-10T09:17:47.084Z,997.36
2018-11-10T09:18:46.907Z,997.41
2018-11-10T09:19:46.640Z,997.40
2018-11-10T09:20:47.123Z,997.39
2018-11-10T09:21:46.663Z,997.39
2018-11-10T09:22:47.045Z,997.44
2018-11-10T09:23:46.600Z,997.43
2018-11-10T09:24:46.589Z,997.46
2018-11-10T09:25:46.593Z,997.42
2018-11-10T09:26:46.564Z,997.46
2018-11-10T09:27:46.568Z,997.44
2018-11-10T09:28:46.826Z,997.41
2018-11-10T09:29:46.668Z,997.34
2018-11-10T09:30:46.548Z,997.37
2018-11-10T09:31:46.771Z,997.38
2018-11-10T09:32:46.515Z,997.38
2018-11-10T09:33:46.500Z,997.33
2018-11-10T09:34:46.484Z,997.24
2018-11-10T09:35:46.501Z,997.32
2018-11-10T09:36:46.473Z,997.34
2018-11-10T09:37:46.453Z,997.29
2018-11-10T09:38:46.456Z,997.30
2018-11-10T09:39:46.436Z,997.30
2018-11-10T09:40:46.429Z,997.28
2018-11-10T09:41:46.410Z,997.30
2018-11-10T09:42:46.647Z,997.31
2018-11-10T09:43:46.394Z,997.29
2018-11-10T09:44:46.504Z,997.30
2018-11-10T09:45:46.369Z,997.29
2018-11-10T09:46:46.500Z,997.34
2018-11-10T09:47:47.983Z,997.29
2018-11-10T09:48:46.338Z,997.29
2018-11-10T09:49:46.395Z,997.35
2018-11-10T09:50:46.681Z,997.24
2018-11-10T09:51:46.579Z,997.19
2018-11-10T09:52:46.555Z,997.24
2018-11-10T09:53:46.341Z,997.21
2018-11-10T09:54:46.276Z,997.27
2018-11-10T09:55:46.408Z,997.24
2018-11-10T09:56:46.269Z,997.19
2018-11-10T09:57:46.624Z,997.31
2018-11-10T09:58:46.245Z,997.27
2018-11-10T09:59:46.241Z,997.35
2018-11-10T10:00:46.219Z,997.33
2018-11-10T10:01:46.417Z,997.23
2018-11-10T10:02:46.763Z,997.28
2018-11-10T10:03:46.524Z,997.28
2018-11-10T10:04:46.174Z,997.22
2018-11-10T10:05:46.175Z,997.25
2018-11-10T10:06:46.168Z,997.21
2018-11-10T10:07:46.144Z,997.23
2018-11-10T10:08:46.246Z,997.30
2018-11-10T10:09:46.384Z,997.29
2018-11-10T10:10:46.606Z,997.26
2018-11-10T10:11:46.201Z,997.32
2018-11-10T10:12:46.087Z,997.33
2018-11-10T10:13:46.099Z,997.36
2018-11-10T10:14:46.084Z,997.31
2018-11-10T10:15:46.075Z,997.29
2018-11-10T10:16:46.216Z,997.28
2018-11-10T10:17:46.036Z,997.23
2018-11-10T10:18:46.368Z,997.25
2018-11-10T10:19:46.025Z,997.26
2018-11-10T10:20:46.369Z,997.21
2018-11-10T10:21:46.218Z,997.30
2018-11-10T10:22:46.101Z,997.28
2018-11-10T10:23:45.981Z,997.33
2018-11-10T10:24:45.961Z,997.31
2018-11-10T10:25:45.952Z,997.26
2018-11-10T10:26:45.938Z,997.25
2018-11-10T10:27:46.196Z,997.28
2018-11-10T10:28:46.220Z,997.27
2018-11-10T10:29:45.911Z,997.26
2018-11-10T10:30:45.900Z,997.26
2018-11-10T10:31:45.905Z,997.21
2018-11-10T10:32:46.000Z,997.27
2018-11-10T10:33:46.132Z,997.23
2018-11-10T10:34:46.065Z,997.23
2018-11-10T10:35:45.901Z,997.20
2018-11-10T10:36:45.957Z,997.21
2018-11-10T10:37:45.834Z,997.21
2018-11-10T10:38:45.815Z,997.27
2018-11-10T10:39:46.309Z,997.20
2018-11-10T10:40:46.049Z,997.20
2018-11-10T10:41:45.788Z,997.22
2018-11-10T10:42:45.974Z,997.17
2018-11-10T10:43:45.762Z,997.14
2018-11-10T10:44:45.809Z,997.23
2018-11-10T10:45:45.871Z,997.19
2018-11-10T10:46:45.858Z,997.16
2018-11-10T10:47:45.735Z,997.21
2018-11-10T10:48:45.879Z,997.14
2018-11-10T10:58:18.630Z,997.09
2018-11-10T10:58:19.033Z,997.07
2018-11-10T10:58:19.144Z,997.17
2018-11-10T10:59:07.778Z,997.10
2018-11-10T11:00:07.660Z,997.05
2018-11-10T11:01:07.977Z,996.96
2018-11-10T11:02:07.626Z,996.98
2018-11-10T11:03:07.991Z,996.90
2018-11-10T11:04:07.780Z,996.95
2018-11-10T11:05:07.775Z,996.87
2018-11-10T11:06:08.089Z,996.91
2018-11-10T11:07:07.586Z,996.84
2018-11-10T11:08:07.575Z,996.82
2018-11-10T11:09:07.985Z,996.81
2018-11-10T11:10:07.539Z,996.83
2018-11-10T11:11:07.530Z,996.81
2018-11-10T11:12:07.531Z,996.83
2018-11-10T11:13:07.760Z,996.82
2018-11-10T11:14:07.512Z,996.81
2018-11-10T11:15:07.647Z,996.84
2018-11-10T11:16:07.576Z,996.80
2018-11-10T11:17:07.584Z,996.73
2018-11-10T11:18:07.525Z,996.78
2018-11-10T11:19:07.459Z,996.85
2018-11-10T11:20:07.437Z,996.86
2018-11-10T11:21:07.423Z,996.78
2018-11-10T11:22:07.434Z,996.71
2018-11-10T11:23:07.409Z,996.74
2018-11-10T11:24:07.640Z,996.74
2018-11-10T11:25:07.407Z,996.73
2018-11-10T11:26:07.378Z,996.76
2018-11-10T11:27:07.362Z,996.71
2018-11-10T11:28:07.377Z,996.74
2018-11-10T11:29:07.426Z,996.78
2018-11-10T11:30:07.344Z,996.68
2018-11-10T11:31:07.377Z,996.76
2018-11-10T11:32:07.568Z,996.73
2018-11-10T11:33:07.352Z,996.69
2018-11-10T11:34:07.549Z,996.71
2018-11-10T11:35:07.527Z,996.70
2018-11-10T11:36:07.278Z,996.73
2018-11-10T11:37:07.257Z,996.75
2018-11-10T11:38:07.490Z,996.68
2018-11-10T11:39:07.245Z,996.63
2018-11-10T11:40:07.255Z,996.73
2018-11-10T11:41:07.389Z,996.71
2018-11-10T11:42:07.459Z,996.75
2018-11-10T11:43:07.203Z,996.75
2018-11-10T11:44:07.638Z,996.74
2018-11-10T11:45:07.175Z,996.75
2018-11-10T11:46:07.174Z,996.77
2018-11-10T11:47:07.173Z,996.73
2018-11-10T11:48:07.403Z,996.71
2018-11-10T11:49:07.154Z,996.67
2018-11-10T11:50:07.122Z,996.60
2018-11-10T11:51:07.117Z,996.58
2018-11-10T11:52:07.107Z,996.61
2018-11-10T11:53:07.095Z,996.55
2018-11-10T11:54:07.336Z,996.54
2018-11-10T11:55:07.334Z,996.61
2018-11-10T11:56:07.063Z,996.54
2018-11-10T11:57:07.596Z,996.54
2018-11-10T11:58:07.243Z,996.56
2018-11-10T11:59:07.544Z,996.63
2018-11-10T12:00:07.033Z,996.55
2018-11-10T12:01:07.049Z,996.53
2018-11-10T12:02:07.287Z,996.56
2018-11-10T12:03:07.006Z,996.44
2018-11-10T12:04:07.089Z,996.49
2018-11-10T12:05:07.213Z,996.45
2018-11-10T12:06:06.962Z,996.47
2018-11-10T12:07:07.207Z,996.50
2018-11-10T12:08:06.938Z,996.49
2018-11-10T12:09:06.940Z,996.43
2018-11-10T12:10:07.196Z,996.48
2018-11-10T12:11:07.036Z,996.43
2018-11-10T12:12:06.900Z,996.48
2018-11-10T12:13:06.899Z,996.45
2018-11-10T12:14:06.875Z,996.45
2018-11-10T12:15:07.013Z,996.44
2018-11-10T12:16:06.883Z,996.43
2018-11-10T12:17:07.248Z,996.35
2018-11-10T12:18:06.840Z,996.40
2018-11-10T12:19:06.834Z,996.40
2018-11-10T12:20:06.812Z,996.37
2018-11-10T12:21:06.838Z,996.41
2018-11-10T12:22:07.178Z,996.35
2018-11-10T12:23:06.895Z,996.38
2018-11-10T12:24:06.776Z,996.37
2018-11-10T12:25:07.017Z,996.30
2018-11-10T12:26:07.001Z,996.32
2018-11-10T12:27:06.741Z,996.33
2018-11-10T12:28:06.993Z,996.31
2018-11-10T12:29:06.983Z,996.29
2018-11-10T12:30:06.739Z,996.33
2018-11-10T12:31:06.811Z,996.29
2018-11-10T12:32:06.949Z,996.26
2018-11-10T12:33:07.051Z,996.31
2018-11-10T12:34:06.669Z,996.28
2018-11-10T12:35:06.657Z,996.27
2018-11-10T12:36:06.903Z,996.28
2018-11-10T12:37:06.637Z,996.29
2018-11-10T12:38:06.645Z,996.22
2018-11-10T12:39:06.643Z,996.25
2018-11-10T12:40:06.855Z,996.25
2018-11-10T12:41:06.738Z,996.21
2018-11-10T12:42:06.603Z,996.27
2018-11-10T12:43:06.590Z,996.22
2018-11-10T12:44:06.578Z,996.15
2018-11-10T12:45:06.591Z,996.15
2018-11-10T12:46:06.651Z,996.11
2018-11-10T12:47:06.558Z,996.18
2018-11-10T12:48:06.525Z,996.14
2018-11-10T12:49:06.527Z,996.08
2018-11-10T12:50:06.514Z,996.14
2018-11-10T12:51:06.491Z,996.16
2018-11-10T12:52:06.621Z,996.12
2018-11-10T12:53:06.488Z,996.10
2018-11-10T12:54:06.462Z,996.14
2018-11-10T12:55:06.617Z,996.15
2018-11-10T12:56:06.437Z,996.16
2018-11-10T12:57:06.429Z,996.14
2018-11-10T12:58:06.661Z,996.17
2018-11-10T12:59:06.422Z,996.14
2018-11-10T13:00:06.654Z,996.13
2018-11-10T13:01:06.410Z,996.11
2018-11-10T13:02:06.387Z,996.14
2018-11-10T13:03:06.615Z,996.10
2018-11-10T13:04:06.488Z,996.12
2018-11-10T13:05:06.500Z,996.11
2018-11-10T13:06:07.861Z,996.10
2018-11-10T13:07:06.523Z,996.11
2018-11-10T13:08:06.373Z,996.11
2018-11-10T13:09:06.364Z,996.04
2018-11-10T13:10:06.302Z,996.10
2018-11-10T13:11:06.393Z,996.08
2018-11-10T13:12:06.550Z,996.08
2018-11-10T13:13:06.362Z,996.10
2018-11-10T13:14:06.356Z,996.16
2018-11-10T13:15:06.502Z,996.12
2018-11-10T13:16:06.359Z,996.09
2018-11-10T13:17:06.490Z,996.08
2018-11-10T13:18:06.389Z,996.08
2018-11-10T13:19:06.454Z,996.03
2018-11-10T13:20:06.303Z,996.06
2018-11-10T13:21:06.180Z,996.12
2018-11-10T13:22:06.298Z,996.08
2018-11-10T13:23:06.662Z,996.05
2018-11-10T13:24:06.177Z,996.05
2018-11-10T13:25:06.157Z,996.01
2018-11-10T13:26:06.499Z,996.06
2018-11-10T13:27:06.377Z,996.01
2018-11-10T13:28:06.109Z,995.93
2018-11-10T13:29:06.190Z,995.97
2018-11-10T13:30:06.104Z,995.99
2018-11-10T13:31:06.554Z,996.00
2018-11-10T13:32:06.066Z,995.94
2018-11-10T13:33:06.318Z,995.91
2018-11-10T13:34:06.046Z,995.91
2018-11-10T13:35:06.042Z,995.91
2018-11-10T13:36:06.150Z,995.92
2018-11-10T13:37:06.019Z,995.91
2018-11-10T13:38:06.331Z,995.95
2018-11-10T13:39:06.052Z,995.93
2018-11-10T13:40:06.069Z,995.96
2018-11-10T13:41:05.978Z,996.00
2018-11-10T13:42:06.217Z,995.97
2018-11-10T13:43:06.063Z,996.02
2018-11-10T13:44:06.081Z,996.03
2018-11-10T13:45:05.932Z,995.99
2018-11-10T13:46:06.122Z,995.91
2018-11-10T13:47:05.924Z,995.99
2018-11-10T13:48:05.999Z,996.02
2018-11-10T13:49:06.248Z,996.03
2018-11-10T13:50:06.001Z,995.96
2018-11-10T13:51:06.114Z,995.95
2018-11-10T13:52:06.202Z,995.94
2018-11-10T13:53:06.953Z,995.96
2018-11-10T13:54:05.839Z,995.90
2018-11-10T13:55:06.072Z,995.92
2018-11-10T13:56:05.933Z,995.97
2018-11-10T13:57:05.824Z,995.96
2018-11-10T13:58:05.796Z,995.92
2018-11-10T13:59:07.002Z,995.94
2018-11-10T14:00:06.043Z,995.99
2018-11-10T14:01:05.769Z,995.99
2018-11-10T14:02:05.770Z,995.99
2018-11-10T14:03:06.112Z,996.05
2018-11-10T14:04:05.739Z,996.02
2018-11-10T14:05:05.833Z,995.99
2018-11-10T14:06:05.968Z,996.00
2018-11-10T14:07:05.960Z,995.97
2018-11-10T14:08:05.816Z,996.01
2018-11-10T14:09:05.681Z,995.99
2018-11-10T14:10:05.793Z,995.93
2018-11-10T14:11:05.978Z,995.87
2018-11-10T14:12:05.685Z,995.90
2018-11-10T14:13:05.759Z,995.81
2018-11-10T14:14:05.933Z,995.81
2018-11-10T14:15:05.633Z,995.71
2018-11-10T14:16:05.612Z,995.69
2018-11-10T14:17:05.614Z,995.77
2018-11-10T14:18:05.873Z,995.72
2018-11-10T14:19:05.579Z,995.67
2018-11-10T14:20:05.703Z,995.69
2018-11-10T14:21:05.588Z,995.61
2018-11-10T14:22:05.799Z,995.59
2018-11-10T14:23:05.548Z,995.57
2018-11-10T14:24:05.544Z,995.61
2018-11-10T14:25:05.643Z,995.53
2018-11-10T14:26:05.758Z,995.44
2018-11-10T14:27:05.745Z,995.45
2018-11-10T14:28:05.485Z,995.48
2018-11-10T14:29:05.607Z,995.46
2018-11-10T14:30:05.464Z,995.61
2018-11-10T14:31:05.465Z,995.50
2018-11-10T14:32:05.452Z,995.61
2018-11-10T14:33:05.464Z,995.61
2018-11-10T14:34:05.443Z,995.58
2018-11-10T14:35:05.684Z,995.54
2018-11-10T14:36:05.515Z,995.51
2018-11-10T14:37:05.645Z,995.53
2018-11-10T14:38:05.382Z,995.54
2018-11-10T14:39:05.412Z,995.45
2018-11-10T14:40:05.609Z,995.44
2018-11-10T14:41:05.870Z,995.43
2018-11-10T14:42:05.421Z,995.42
2018-11-10T14:43:05.469Z,995.42
2018-11-10T14:44:05.343Z,995.57
2018-11-10T14:45:05.315Z,995.52
2018-11-10T14:46:05.653Z,995.45
2018-11-10T14:47:05.309Z,995.60
2018-11-10T14:48:05.551Z,995.50
2018-11-10T14:49:05.399Z,995.63
2018-11-10T14:51:05.386Z,995.67
2018-11-10T14:52:05.395Z,995.70
2018-11-10T14:53:06.212Z,995.73
2018-11-10T14:54:05.235Z,995.73
2018-11-10T14:55:05.480Z,995.68
2018-11-10T14:56:05.245Z,995.75
2018-11-10T15:10:05.052Z,995.96
